John James Audubon — WDE8037 — position and weather

sailwx.info

Track history (hours):
 
Tides and Currents Weather Stations Pressure Air Temp Water Temp Dewpoint Dewpoint Depression Visibility Wind Speed Wind Dir Waves Ship Positions

John James Audubon

Owner: Statue Cruises, Jersey City, NJ. More information available from US FCC via Universal Licensing System and Coast Guard Vessel Documentation Center.

Last reported at 2015-Mar-03 00:33 UTC. Time now 2015-Mar-03 04:46 UTC.
Position N 40°44' W 074°01'.

Length 37 m.

Type: Ship. MMSI: 367400770.

Date/timePositionNaut miles runAvg speedWind from/ knotsBaromVisibWave heightAir tempDewpointWater temp
2015-Mar-03 00:33N 40°44' W 074°01'2 1.8
2015-Mar-02 23:33N 40°43' W 074°02'2 1.7
2015-Mar-02 22:33N 40°42' W 074°00'2 1.8
2015-Mar-02 21:33N 40°41' W 074°02'2 1.8
2015-Mar-02 20:33N 40°42' W 074°00'0 0.0
2015-Mar-02 19:33N 40°42' W 074°00'2 1.6
2015-Mar-02 18:33N 40°41' W 074°02'2 1.6
2015-Mar-02 17:34N 40°42' W 074°00'0 0.0
2015-Mar-02 16:34N 40°42' W 074°00'2 2.1
2015-Mar-02 15:33N 40°41' W 074°02'2 2.1
2015-Mar-02 14:34N 40°42' W 074°00'2 1.6
2015-Mar-02 13:33N 40°44' W 074°01'0 0.0
2015-Mar-01 23:10N 40°44' W 074°01'2 2.9
2015-Mar-01 22:33N 40°42' W 074°01'1 1.0
2015-Mar-01 21:33N 40°41' W 074°02'2 1.7
2015-Mar-01 20:33N 40°42' W 074°00'0 0.0
2015-Mar-01 19:33N 40°42' W 074°00'1 1.3
2015-Mar-01 18:34N 40°42' W 074°02'1 1.2
2015-Mar-01 17:31N 40°42' W 074°00'0 0.0
2015-Mar-01 16:33N 40°42' W 074°00'2 2.1
2015-Mar-01 15:34N 40°41' W 074°03'2 1.8
2015-Mar-01 14:34N 40°43' W 074°01'1 1.3
2015-Mar-01 13:34N 40°44' W 074°01'0 0.0
2015-Feb-28 23:33N 40°44' W 074°01'2 1.9
2015-Feb-28 22:33N 40°42' W 074°01'2 1.6
2015-Feb-28 21:32N 40°41' W 074°02'2 1.7
2015-Feb-28 20:24N 40°42' W 074°00'0 0.0
2015-Feb-28 19:18N 40°42' W 074°00'2 2.3
2015-Feb-28 18:33N 40°41' W 074°02'2 1.4
2015-Feb-28 17:21N 40°42' W 074°00'0 0.0
2015-Feb-28 16:33N 40°42' W 074°00'0 0.0
2015-Feb-28 15:33N 40°42' W 074°00'2 1.6
2015-Feb-28 14:33N 40°44' W 074°01'0 0.0
2015-Feb-28 13:34N 40°44' W 074°01'0 0.0
2015-Feb-28 00:33N 40°44' W 074°01'2 1.8
2015-Feb-27 23:33N 40°43' W 074°02'0 0.2
2015-Feb-27 22:33N 40°43' W 074°02'1 1.2
2015-Feb-27 21:33N 40°41' W 074°02'2 1.6
2015-Feb-27 20:33N 40°42' W 074°00'0 0.0
2015-Feb-27 19:33N 40°42' W 074°00'2 1.8
2015-Feb-27 18:33N 40°41' W 074°02'2 1.8
2015-Feb-27 17:33N 40°42' W 074°00'0 0.0
2015-Feb-27 16:33N 40°42' W 074°00'2 1.7
2015-Feb-27 15:33N 40°41' W 074°02'2 1.7
2015-Feb-27 14:32N 40°42' W 074°00'2 1.7
2015-Feb-27 13:33N 40°44' W 074°01'0 0.0
2015-Feb-26 22:33N 40°44' W 074°01'2 2.2
2015-Feb-26 21:33N 40°42' W 074°01'1 1.0
2015-Feb-26 20:29N 40°42' W 074°00'0 0.0
2015-Feb-26 19:19N 40°42' W 074°00'1 1.4
2015-Feb-26 18:33N 40°42' W 074°01'1 1.0
2015-Feb-26 17:27N 40°42' W 074°00'0 0.0
2015-Feb-26 16:13N 40°42' W 074°00'1 0.5
2015-Feb-26 14:33N 40°43' W 074°01'1 0.1
2015-Feb-25 22:33N 40°44' W 074°01'2 2.4
2015-Feb-25 21:32N 40°42' W 074°02'1 1.1
2015-Feb-25 20:21N 40°42' W 074°00'1 0.6
2015-Feb-25 18:33N 40°42' W 074°01'1 1.0
2015-Feb-25 17:10N 40°42' W 073°60'0 0.3
2015-Feb-25 16:07N 40°42' W 074°00'1 2.5
2015-Feb-25 15:33N 40°41' W 074°02'1 0.8
2015-Feb-25 14:32N 40°42' W 074°01'1 0.1
2015-Feb-24 22:33N 40°44' W 074°01'2 1.8
2015-Feb-24 21:33N 40°42' W 074°01'1 0.7
2015-Feb-24 20:33N 40°42' W 074°00'0 0.0
2015-Feb-24 19:33N 40°42' W 074°00'2 1.9
2015-Feb-24 18:33N 40°41' W 074°02'2 1.9
2015-Feb-24 17:33N 40°42' W 074°00'0 0.0
2015-Feb-24 16:32N 40°42' W 074°00'1 1.1
2015-Feb-24 15:33N 40°42' W 074°02'1 1.1
2015-Feb-24 14:33N 40°42' W 074°00'2 1.7
2015-Feb-24 13:33N 40°43' W 074°02'1 0.0
2015-Feb-23 22:33N 40°42' W 074°02'1 1.4
2015-Feb-23 21:33N 40°41' W 074°02'2 1.8
2015-Feb-23 20:33N 40°42' W 074°00'0 0.0
2015-Feb-23 19:33N 40°42' W 074°00'2 1.6
2015-Feb-23 18:33N 40°42' W 074°02'2 1.6
2015-Feb-23 17:33N 40°42' W 074°00'0 0.0
2015-Feb-23 16:33N 40°42' W 074°00'2 2.0
2015-Feb-23 15:33N 40°41' W 074°02'2 2.0
2015-Feb-23 14:33N 40°42' W 074°00'2 0.1
2015-Feb-23 00:03N 40°44' W 074°01'2 3.5
2015-Feb-22 23:34N 40°43' W 074°02'0 0.3
2015-Feb-22 22:33N 40°43' W 074°02'1 1.1
2015-Feb-22 21:33N 40°42' W 074°01'1 1.1
2015-Feb-22 20:32N 40°42' W 074°00'0 0.0
2015-Feb-22 19:34N 40°42' W 074°00'2 1.8
2015-Feb-22 18:33N 40°41' W 074°02'2 1.8
2015-Feb-22 17:33N 40°42' W 074°00'0 0.0
2015-Feb-22 16:34N 40°42' W 074°00'1 1.1
2015-Feb-22 15:33N 40°42' W 074°01'1 1.2
2015-Feb-22 14:33N 40°43' W 074°01'1 0.1
2015-Feb-22 05:33N 40°42' W 074°01'1 0.8
2015-Feb-22 04:33N 40°42' W 074°00'0 0.0
2015-Feb-22 03:33N 40°42' W 074°00'0 0.0
2015-Feb-22 02:33N 40°42' W 074°00'0 0.0
2015-Feb-22 01:30N 40°42' W 074°00'1 1.4
2015-Feb-22 00:33N 40°43' W 074°01'1 0.7
2015-Feb-21 23:33N 40°44' W 074°01'2 1.6
2015-Feb-21 22:33N 40°42' W 074°00'0 0.0
2015-Feb-21 21:33N 40°42' W 074°00'1 0.6
2015-Feb-21 20:33N 40°42' W 074°01'1 0.6
2015-Feb-21 19:33N 40°42' W 074°00'2 1.9
2015-Feb-21 18:33N 40°41' W 074°02'2 1.9
2015-Feb-21 17:33N 40°42' W 074°00'0 0.0
2015-Feb-21 16:33N 40°42' W 074°00'2 2.1
2015-Feb-21 15:33N 40°41' W 074°03'2 2.1
2015-Feb-21 14:33N 40°42' W 074°00'0 0.0
2015-Feb-21 13:33N 40°42' W 074°00'0 0.0
2015-Feb-21 12:33N 40°42' W 074°00'0 0.0
2015-Feb-21 11:33N 40°42' W 074°00'0 0.0
2015-Feb-21 10:33N 40°42' W 074°00'0 0.0
2015-Feb-21 09:33N 40°42' W 074°00'0 0.0
2015-Feb-21 08:33N 40°42' W 074°00'0 0.0
2015-Feb-21 07:33N 40°42' W 074°00'0 0.0
2015-Feb-21 06:33N 40°42' W 074°00'0 0.0
2015-Feb-21 05:33N 40°42' W 074°00'0 0.0
2015-Feb-21 04:33N 40°42' W 074°00'0 0.0
2015-Feb-21 03:33N 40°42' W 074°00'0 0.0
2015-Feb-21 01:33N 40°42' W 074°00'0 0.0
2015-Feb-21 00:33N 40°42' W 074°00'  
Track history (hours):
 
Tides and Currents Weather Stations Pressure Air Temp Water Temp Dewpoint Dewpoint Depression Visibility Wind Speed Wind Dir Waves Ship Positions

John James Audubon

Owner: Statue Cruises, Jersey City, NJ. More information available from US FCC via Universal Licensing System and Coast Guard Vessel Documentation Center.

Last reported at 2015-Mar-03 00:33 UTC. Time now 2015-Mar-03 04:46 UTC.
Position N 40°44' W 074°01'.

Length 37 m.

Type: Ship. MMSI: 367400770.

Date/timePositionNaut miles runAvg speedWind from/ knotsBaromVisibWave heightAir tempDewpointWater temp
2015-Mar-03 00:33N 40°44' W 074°01'2 1.8
2015-Mar-02 23:33N 40°43' W 074°02'2 1.7
2015-Mar-02 22:33N 40°42' W 074°00'2 1.8
2015-Mar-02 21:33N 40°41' W 074°02'2 1.8
2015-Mar-02 20:33N 40°42' W 074°00'0 0.0
2015-Mar-02 19:33N 40°42' W 074°00'2 1.6
2015-Mar-02 18:33N 40°41' W 074°02'2 1.6
2015-Mar-02 17:34N 40°42' W 074°00'0 0.0
2015-Mar-02 16:34N 40°42' W 074°00'2 2.1
2015-Mar-02 15:33N 40°41' W 074°02'2 2.1
2015-Mar-02 14:34N 40°42' W 074°00'2 1.6
2015-Mar-02 13:33N 40°44' W 074°01'0 0.0
2015-Mar-01 23:10N 40°44' W 074°01'2 2.9
2015-Mar-01 22:33N 40°42' W 074°01'1 1.0
2015-Mar-01 21:33N 40°41' W 074°02'2 1.7
2015-Mar-01 20:33N 40°42' W 074°00'0 0.0
2015-Mar-01 19:33N 40°42' W 074°00'1 1.3
2015-Mar-01 18:34N 40°42' W 074°02'1 1.2
2015-Mar-01 17:31N 40°42' W 074°00'0 0.0
2015-Mar-01 16:33N 40°42' W 074°00'2 2.1
2015-Mar-01 15:34N 40°41' W 074°03'2 1.8
2015-Mar-01 14:34N 40°43' W 074°01'1 1.3
2015-Mar-01 13:34N 40°44' W 074°01'0 0.0
2015-Feb-28 23:33N 40°44' W 074°01'2 1.9
2015-Feb-28 22:33N 40°42' W 074°01'2 1.6
2015-Feb-28 21:32N 40°41' W 074°02'2 1.7
2015-Feb-28 20:24N 40°42' W 074°00'0 0.0
2015-Feb-28 19:18N 40°42' W 074°00'2 2.3
2015-Feb-28 18:33N 40°41' W 074°02'2 1.4
2015-Feb-28 17:21N 40°42' W 074°00'0 0.0
2015-Feb-28 16:33N 40°42' W 074°00'0 0.0
2015-Feb-28 15:33N 40°42' W 074°00'2 1.6
2015-Feb-28 14:33N 40°44' W 074°01'0 0.0
2015-Feb-28 13:34N 40°44' W 074°01'0 0.0
2015-Feb-28 00:33N 40°44' W 074°01'2 1.8
2015-Feb-27 23:33N 40°43' W 074°02'0 0.2
2015-Feb-27 22:33N 40°43' W 074°02'1 1.2
2015-Feb-27 21:33N 40°41' W 074°02'2 1.6
2015-Feb-27 20:33N 40°42' W 074°00'0 0.0
2015-Feb-27 19:33N 40°42' W 074°00'2 1.8
2015-Feb-27 18:33N 40°41' W 074°02'2 1.8
2015-Feb-27 17:33N 40°42' W 074°00'0 0.0
2015-Feb-27 16:33N 40°42' W 074°00'2 1.7
2015-Feb-27 15:33N 40°41' W 074°02'2 1.7
2015-Feb-27 14:32N 40°42' W 074°00'2 1.7
2015-Feb-27 13:33N 40°44' W 074°01'0 0.0
2015-Feb-26 22:33N 40°44' W 074°01'2 2.2
2015-Feb-26 21:33N 40°42' W 074°01'1 1.0
2015-Feb-26 20:29N 40°42' W 074°00'0 0.0
2015-Feb-26 19:19N 40°42' W 074°00'1 1.4
2015-Feb-26 18:33N 40°42' W 074°01'1 1.0
2015-Feb-26 17:27N 40°42' W 074°00'0 0.0
2015-Feb-26 16:13N 40°42' W 074°00'1 0.5
2015-Feb-26 14:33N 40°43' W 074°01'1 0.1
2015-Feb-25 22:33N 40°44' W 074°01'2 2.4
2015-Feb-25 21:32N 40°42' W 074°02'1 1.1
2015-Feb-25 20:21N 40°42' W 074°00'1 0.6
2015-Feb-25 18:33N 40°42' W 074°01'1 1.0
2015-Feb-25 17:10N 40°42' W 073°60'0 0.3
2015-Feb-25 16:07N 40°42' W 074°00'1 2.5
2015-Feb-25 15:33N 40°41' W 074°02'1 0.8
2015-Feb-25 14:32N 40°42' W 074°01'1 0.1
2015-Feb-24 22:33N 40°44' W 074°01'2 1.8
2015-Feb-24 21:33N 40°42' W 074°01'1 0.7
2015-Feb-24 20:33N 40°42' W 074°00'0 0.0
2015-Feb-24 19:33N 40°42' W 074°00'2 1.9
2015-Feb-24 18:33N 40°41' W 074°02'2 1.9
2015-Feb-24 17:33N 40°42' W 074°00'0 0.0
2015-Feb-24 16:32N 40°42' W 074°00'1 1.1
2015-Feb-24 15:33N 40°42' W 074°02'1 1.1
2015-Feb-24 14:33N 40°42' W 074°00'2 1.7
2015-Feb-24 13:33N 40°43' W 074°02'1 0.0
2015-Feb-23 22:33N 40°42' W 074°02'1 1.4
2015-Feb-23 21:33N 40°41' W 074°02'2 1.8
2015-Feb-23 20:33N 40°42' W 074°00'0 0.0
2015-Feb-23 19:33N 40°42' W 074°00'2 1.6
2015-Feb-23 18:33N 40°42' W 074°02'2 1.6
2015-Feb-23 17:33N 40°42' W 074°00'0 0.0
2015-Feb-23 16:33N 40°42' W 074°00'2 2.0
2015-Feb-23 15:33N 40°41' W 074°02'2 2.0
2015-Feb-23 14:33N 40°42' W 074°00'2 0.1
2015-Feb-23 00:03N 40°44' W 074°01'2 3.5
2015-Feb-22 23:34N 40°43' W 074°02'0 0.3
2015-Feb-22 22:33N 40°43' W 074°02'1 1.1
2015-Feb-22 21:33N 40°42' W 074°01'1 1.1
2015-Feb-22 20:32N 40°42' W 074°00'0 0.0
2015-Feb-22 19:34N 40°42' W 074°00'2 1.8
2015-Feb-22 18:33N 40°41' W 074°02'2 1.8
2015-Feb-22 17:33N 40°42' W 074°00'0 0.0
2015-Feb-22 16:34N 40°42' W 074°00'1 1.1
2015-Feb-22 15:33N 40°42' W 074°01'1 1.2
2015-Feb-22 14:33N 40°43' W 074°01'1 0.1
2015-Feb-22 05:33N 40°42' W 074°01'1 0.8
2015-Feb-22 04:33N 40°42' W 074°00'0 0.0
2015-Feb-22 03:33N 40°42' W 074°00'0 0.0
2015-Feb-22 02:33N 40°42' W 074°00'0 0.0
2015-Feb-22 01:30N 40°42' W 074°00'1 1.4
2015-Feb-22 00:33N 40°43' W 074°01'1 0.7
2015-Feb-21 23:33N 40°44' W 074°01'2 1.6
2015-Feb-21 22:33N 40°42' W 074°00'0 0.0
2015-Feb-21 21:33N 40°42' W 074°00'1 0.6
2015-Feb-21 20:33N 40°42' W 074°01'1 0.6
2015-Feb-21 19:33N 40°42' W 074°00'2 1.9
2015-Feb-21 18:33N 40°41' W 074°02'2 1.9
2015-Feb-21 17:33N 40°42' W 074°00'0 0.0
2015-Feb-21 16:33N 40°42' W 074°00'2 2.1
2015-Feb-21 15:33N 40°41' W 074°03'2 2.1
2015-Feb-21 14:33N 40°42' W 074°00'0 0.0
2015-Feb-21 13:33N 40°42' W 074°00'0 0.0
2015-Feb-21 12:33N 40°42' W 074°00'0 0.0
2015-Feb-21 11:33N 40°42' W 074°00'0 0.0
2015-Feb-21 10:33N 40°42' W 074°00'0 0.0
2015-Feb-21 09:33N 40°42' W 074°00'0 0.0
2015-Feb-21 08:33N 40°42' W 074°00'0 0.0
2015-Feb-21 07:33N 40°42' W 074°00'0 0.0
2015-Feb-21 06:33N 40°42' W 074°00'0 0.0
2015-Feb-21 05:33N 40°42' W 074°00'0 0.0
2015-Feb-21 04:33N 40°42' W 074°00'0 0.0
2015-Feb-21 03:33N 40°42' W 074°00'0 0.0
2015-Feb-21 01:33N 40°42' W 074°00'0 0.0
2015-Feb-21 00:33N 40°42' W 074°00'  

Dump ship's entire track history